Data for 05/02/2014

Time Sea-Level Adjusted Pressure Absolute Pressure Temperature Relative Humidity Dew Point   
(mb) (inHg) (mb) (inHg) (C) (F) (%) (C) (F)
00:05 1020 30.12 849 25.07 9.7 49.5 47 -0.9 30.3
00:10 1020 30.12 849 25.07 10 50 46 -1.1 30
00:15 1020 30.12 849 25.07 10.2 50.3 46 -0.9 30.4
00:20 1020 30.12 849 25.07 10.1 50.2 47 -0.8 30.6
00:25 1020 30.12 849 25.07 9.9 49.8 47 -0.9 30.5
00:30 1020 30.12 849 25.07 9.7 49.5 48 -0.7 30.8
00:35 1020 30.12 849 25.07 9.6 49.3 48 -0.7 30.7
00:40 1020 30.12 849 25.07 9.7 49.5 47 -1 30.3
00:45 1020 30.12 849 25.07 9.7 49.5 47 -1 30.2
00:50 1020 30.12 849 25.07 9.8 49.7 47 -1 30.2
00:55 1020 30.12 849 25.07 9.9 49.7 47 -0.9 30.4
01:00 1020 30.12 849 25.07 10.1 50.1 45 -1.2 29.9
01:05 1020 30.12 849 25.07 10.1 50.1 46 -1 30.2
01:10 1020 30.12 849 25.07 9.9 49.9 46 -1 30.2
01:15 1020 30.12 849 25.07 10 49.9 46 -1.1 30
01:20 1019 30.09 849 25.07 10 49.9 46 -1.1 30
01:25 1019 30.09 849 25.07 9.9 49.9 46 -1.1 30.1
01:30 1019 30.09 849 25.07 9.9 49.9 46 -1.1 30.1
01:35 1019 30.09 849 25.07 9.9 49.7 46 -1.1 30
01:40 1019 30.09 848 25.04 9.8 49.6 47 -1.1 30.1
01:45 1019 30.09 848 25.04 9.8 49.6 46 -1.1 30
01:50 1019 30.09 848 25.04 9.7 49.5 46 -1.2 29.8
01:55 1019 30.09 848 25.04 9.9 49.8 45 -1.5 29.4
02:00 1019 30.09 848 25.04 10.2 50.4 44 -1.4 29.4
02:05 1019 30.09 848 25.04 10.5 50.8 44 -1.4 29.6
02:10 1019 30.09 848 25.04 10.3 50.6 44 -1.2 29.8
02:15 1019 30.09 848 25.04 10 50 46 -1.1 30.1
02:20 1019 30.09 848 25.04 9.7 49.5 47 -1.1 30
02:25 1019 30.09 848 25.04 9.4 49 48 -0.9 30.4
02:30 1019 30.09 848 25.04 9.1 48.4 49 -1.1 30.1
02:35 1019 30.09 848 25.04 9.1 48.5 48 -1.2 29.8
02:40 1019 30.09 848 25.04 9.4 48.9 47 -1.4 29.4
02:45 1019 30.09 848 25.04 9.6 49.3 47 -1.1 30.1
02:50 1019 30.09 848 25.04 9.6 49.3 46 -1.5 29.3
02:55 1019 30.09 848 25.04 9.8 49.7 45 -1.5 29.3
03:00 1019 30.09 848 25.04 10.1 50.1 45 -1.3 29.6
03:05 1019 30.09 848 25.04 9.5 49.1 50 -0.4 31.3
03:10 1019 30.09 848 25.04 8.3 47 52 -1 30.2
03:15 1019 30.09 848 25.04 8.3 46.9 52 -0.9 30.3
03:20 1019 30.09 848 25.04 8.2 46.7 53 -0.9 30.4
03:25 1019 30.09 848 25.04 8.7 47.6 49 -1.4 29.5
03:30 1019 30.09 848 25.04 9 48.3 49 -1.2 29.9
03:35 1019 30.09 848 25.04 8.9 48.1 48 -1.4 29.5
03:40 1019 30.09 848 25.04 8.9 48 49 -1.1 30
03:45 1019 30.09 848 25.04 8.9 48 49 -1.3 29.7
03:50 1019 30.09 848 25.04 9 48.2 49 -1 30.2
03:55 1019 30.09 848 25.04 9 48.3 48 -1.5 29.3
04:00 1019 30.09 848 25.04 9.3 48.7 48 -1.2 29.9
04:05 1019 30.09 848 25.04 9.1 48.3 49 -1.1 30
04:10 1019 30.09 848 25.04 8.8 47.9 50 -1.1 30
04:15 1019 30.09 848 25.04 8.6 47.4 51 -1.1 30.1
04:20 1019 30.09 848 25.04 8.4 47.1 51 -1.1 30
04:25 1019 30.09 848 25.04 8.2 46.8 51 -1.2 29.8
04:30 1019 30.09 848 25.04 8.3 46.9 51 -1.3 29.7
04:35 1019 30.09 848 25.04 8.3 47 50 -1.4 29.5
04:40 1019 30.09 848 25.04 8.2 46.8 51 -1.4 29.5
04:45 1019 30.09 848 25.04 8 46.5 54 -0.7 30.7
04:50 1019 30.09 848 25.04 7.4 45.3 55 -0.9 30.3
04:55 1019 30.09 848 25.04 7.2 44.9 54 -1.4 29.5
05:00 1019 30.09 848 25.04 7.3 45.2 55 -1.2 29.9
05:05 1019 30.09 848 25.04 7.2 45 57 -0.7 30.8
05:10 1019 30.09 848 25.04 7.1 44.7 56 -1 30.2
05:15 1019 30.09 848 25.04 7.1 44.8 55 -1.2 29.8
05:20 1019 30.09 848 25.04 7.3 45.1 55 -1 30.2
05:25 1019 30.09 848 25.04 7.2 45 56 -0.9 30.4
05:30 1019 30.09 848 25.04 7.4 45.3 55 -1 30.1
05:35 1019 30.09 848 25.04 7.2 44.9 56 -0.9 30.3
05:40 1019 30.09 848 25.04 6.9 44.4 57 -0.9 30.4
05:45 1019 30.09 848 25.04 6.4 43.5 60 -0.9 30.4
05:50 1019 30.09 848 25.04 6.5 43.7 57 -1.4 29.5
05:55 1019 30.09 848 25.04 6.9 44.4 56 -1.2 29.8
06:00 1019 30.09 848 25.04 7.4 45.3 54 -1.2 29.8
06:05 1019 30.09 848 25.04 7.6 45.7 55 -0.8 30.6
06:10 1019 30.09 848 25.04 7.5 45.5 56 -0.7 30.8
06:15 1019 30.09 848 25.04 7.6 45.6 54 -1.1 30
06:20 1019 30.09 848 25.04 8.3 46.9 51 -1.3 29.6
06:25 1019 30.09 848 25.04 8.8 47.8 51 -0.9 30.4
06:30 1019 30.09 848 25.04 8.7 47.7 50 -1 30.2
06:35 1019 30.09 848 25.04 9 48.1 49 -1.1 29.9
06:40 1019 30.09 848 25.04 9.2 48.5 49 -0.9 30.4
06:45 1019 30.09 848 25.04 9.3 48.7 49 -0.9 30.5
06:50 1019 30.09 848 25.04 9.4 49 49 -0.6 30.8
06:55 1019 30.09 848 25.04 9.9 49.8 47 -0.8 30.6
07:00 1019 30.09 848 25.04 10.2 50.4 48 -0.3 31.4
07:05 1019 30.09 848 25.04 10.2 50.4 48 -0.2 31.7
07:10 1019 30.09 848 25.04 10.3 50.6 48 -0.1 31.8
07:15 1019 30.09 848 25.04 10.4 50.7 48 -0.3 31.5
07:20 1019 30.09 848 25.04 10.4 50.7 48 0 32
07:25 1019 30.09 848 25.04 10.4 50.7 48 -0.1 31.8
07:30 1019 30.09 848 25.04 10.6 51.2 47 -0.2 31.6
07:35 1019 30.09 848 25.04 11.1 52 45 -0.4 31.3
07:40 1019 30.09 848 25.04 11.9 53.5 44 0.1 32.2
07:45 1019 30.09 848 25.04 12.8 55 40 -0.3 31.5
07:50 1019 30.09 848 25.04 13.9 56.9 37 -0.6 30.8
07:55 1019 30.09 848 25.04 14.5 58.1 36 -0.2 31.6
08:00 1019 30.09 848 25.04 14.3 57.7 39 0.6 33.1
08:05 1019 30.09 848 25.04 14.3 57.7 38 0.4 32.7
08:10 1019 30.09 848 25.04 14.6 58.3 38 0.6 33
08:15 1019 30.09 848 25.04 14.9 58.8 37 0.5 32.9
08:20 1019 30.09 848 25.04 15.9 60.6 35 0.4 32.6
08:25 1019 30.09 848 25.04 16.2 61.1 33 0.1 32.2
08:30 1019 30.09 848 25.04 16.5 61.8 32 0 32.1
08:35 1019 30.09 848 25.04 16.9 62.4 33 0.5 32.9
08:40 1019 30.09 848 25.04 17 62.6 31 -0.1 31.8
08:45 1019 30.09 848 25.04 17.4 63.3 31 0.1 32.2
08:50 1019 30.09 848 25.04 17.9 64.1 29 -0.3 31.4
08:55 1019 30.09 848 25.04 18.4 65 28 -0.5 31.2
09:00 1019 30.09 848 25.04 18.8 65.8 27 -0.4 31.2
09:05 1019 30.09 848 25.04 18.4 65.2 27 -0.7 30.8
09:10 1019 30.09 848 25.04 18.5 65.3 26 -1.1 30
09:15 1019 30.09 848 25.04 19.1 66.4 23 -2.1 28.2
09:20 1018 30.06 848 25.04 18.5 65.3 24 -2.1 28.2
09:25 1018 30.06 848 25.04 18.6 65.4 23 -3.1 26.4
09:30 1018 30.06 848 25.04 19.3 66.7 24 -1.8 28.8
09:35 1018 30.06 848 25.04 19.6 67.3 23 -1.7 28.9
09:40 1018 30.06 848 25.04 19.2 66.6 23 -2.1 28.2
09:45 1018 30.06 848 25.04 18.9 66 23 -2.5 27.5
09:50 1018 30.06 848 25.04 19.5 67.1 22 -2.8 26.9
09:55 1018 30.06 848 25.04 20.2 68.3 21 -2.7 27.1
10:00 1018 30.06 848 25.04 20.5 68.9 20 -2.9 26.7
10:05 1018 30.06 848 25.04 20.4 68.7 21 -2.8 26.9
10:10 1018 30.06 848 25.04 20.5 69 20 -3 26.6
10:15 1018 30.06 848 25.04 20.4 68.8 23 -1 30.2
10:20 1018 30.06 848 25.04 20 67.9 23 -1.8 28.8
10:25 1018 30.06 848 25.04 20 68 22 -2.2 28
10:30 1018 30.06 848 25.04 19.8 67.7 19 -4.2 24.5
10:35 1018 30.06 848 25.04 19.9 67.9 18 -5 23
10:40 1018 30.06 848 25.04 19.8 67.7 19 -4.4 24.1
10:45 1018 30.06 848 25.04 19.8 67.6 19 -4.2 24.4
10:50 1018 30.06 848 25.04 20.4 68.6 15 -6.6 20.1
10:55 1018 30.06 848 25.04 20.1 68.2 17 -5.8 21.6
11:00 1018 30.06 847 25.01 19.9 67.7 16 -6.7 19.9
11:05 1018 30.06 847 25.01 19.9 67.9 17 -6 21.3
11:10 1018 30.06 847 25.01 20.1 68.1 16 -6.6 20
11:15 1018 30.06 847 25.01 20 68 15 -7.4 18.7
11:20 1018 30.06 847 25.01 20.2 68.4 15 -6.9 19.7
11:25 1018 30.06 847 25.01 20.4 68.7 15 -6.8 19.7
11:30 1018 30.06 847 25.01 20.3 68.5 15 -6.9 19.5
11:35 1018 30.06 847 25.01 20.6 69 15 -7 19.3
11:40 1018 30.06 847 25.01 20.4 68.8 15 -7.3 18.8
11:45 1018 30.06 847 25.01 20.5 68.9 15 -6.8 19.7
11:50 1018 30.06 847 25.01 20.7 69.3 15 -6.8 19.8
11:55 1018 30.06 847 25.01 20.8 69.4 15 -7.1 19.2
12:00 1018 30.06 847 25.01 21 69.8 14 -7.6 18.4
12:05 1018 30.06 847 25.01 21 69.8 14 -6.9 19.5
12:10 1018 30.06 847 25.01 20.7 69.3 15 -6.7 19.9
12:15 1018 30.06 847 25.01 20.7 69.2 16 -6.3 20.6
12:20 1018 30.06 847 25.01 20.5 68.9 15 -6.8 19.8
12:25 1018 30.06 847 25.01 20.4 68.8 16 -6.5 20.4
12:30 1018 30.06 847 25.01 20.9 69.7 15 -6.8 19.8
12:35 1018 30.06 847 25.01 20.9 69.7 15 -6.3 20.7
12:40 1018 30.06 847 25.01 20.5 68.8 15 -6.7 19.9
12:45 1018 30.06 847 25.01 20.6 69 19 -3.8 25.1
12:50 1018 30.06 847 25.01 21.1 70 15 -6.1 21
12:55 1018 30.06 847 25.01 21.5 70.8 15 -6.2 20.8
13:00 1018 30.06 847 25.01 21.7 71 15 -5.8 21.6
13:05 1018 30.06 847 25.01 21.6 70.8 15 -6.1 21.1
13:10 1018 30.06 847 25.01 21.6 70.8 15 -5.9 21.3
13:15 1017 30.03 847 25.01 21.3 70.3 16 -5.1 22.8
13:20 1017 30.03 847 25.01 21.9 71.4 16 -5.2 22.6
13:25 1017 30.03 846 24.98 21.4 70.4 17 -4.9 23.2
13:30 1017 30.03 847 25.01 21.5 70.7 15 -5.7 21.7
13:35 1017 30.03 846 24.98 21.8 71.3 15 -5.7 21.8
13:40 1017 30.03 846 24.98 21.8 71.3 15 -5.9 21.4
13:45 1017 30.03 846 24.98 21.7 71.1 15 -5.6 21.9
13:50 1017 30.03 846 24.98 21.8 71.2 16 -5.2 22.6
13:55 1017 30.03 846 24.98 22.1 71.7 15 -5.8 21.5
14:00 1017 30.03 846 24.98 22 71.7 15 -5.9 21.3
14:05 1017 30.03 846 24.98 21.7 71 14 -6.4 20.5
14:10 1017 30.03 846 24.98 21.7 71 15 -5.9 21.4
14:15 1017 30.03 846 24.98 22.4 72.3 14 -5.9 21.4
14:20 1017 30.03 846 24.98 22.2 71.9 14 -6.4 20.6
14:25 1017 30.03 846 24.98 22.5 72.4 14 -5.9 21.4
14:30 1016 30 846 24.98 22.3 72.2 14 -5.9 21.4
14:35 1016 30 846 24.98 22.5 72.6 15 -5.6 22
14:40 1016 30 846 24.98 21.7 71 15 -5.9 21.3
14:45 1016 30 845 24.95 22.1 71.8 16 -5.1 22.8
14:50 1016 30 845 24.95 21.1 69.9 15 -6.1 21.1
14:55 1016 30 845 24.95 20.7 69.3 15 -6.7 20
15:00 1016 30 845 24.95 20.8 69.4 14 -7.2 19.1
15:05 1016 30 845 24.95 20.6 69.1 14 -7.4 18.8
15:10 1016 30 845 24.95 20.9 69.6 14 -7.3 18.8
15:15 1016 30 845 24.95 20.8 69.4 15 -6.8 19.7
15:20 1016 30 845 24.95 20.8 69.4 16 -6.2 20.9
15:25 1016 30 845 24.95 21.5 70.7 15 -6 21.2
15:30 1015 29.97 845 24.95 22.1 71.8 15 -5.8 21.6
15:35 1015 29.97 845 24.95 22.4 72.4 15 -5.7 21.7
15:40 1015 29.97 845 24.95 22.1 71.8 14 -6.1 21.1
15:45 1015 29.97 844 24.92 22.1 71.8 15 -5.8 21.5
15:50 1015 29.97 844 24.92 22 71.6 14 -6.2 20.9
15:55 1015 29.97 844 24.92 22.7 72.8 14 -5.9 21.4
16:00 1015 29.97 844 24.92 23.2 73.7 14 -5.2 22.6
16:05 1015 29.97 844 24.92 23 73.4 14 -5.4 22.3
16:10 1015 29.97 844 24.92 23 73.4 14 -5.5 22.1
16:15 1015 29.97 844 24.92 22.6 72.7 14 -5.7 21.7
16:20 1015 29.97 844 24.92 22.6 72.7 14 -5.7 21.8
16:25 1015 29.97 844 24.92 22.4 72.2 14 -6.3 20.6
16:30 1015 29.97 844 24.92 22.7 72.9 14 -6.1 21
16:35 1015 29.97 844 24.92 22.3 72.2 14 -5.9 21.4
16:40 1015 29.97 844 24.92 22.8 73 14 -5.9 21.4
16:45 1015 29.97 844 24.92 23 73.3 13 -6.4 20.5
16:50 1015 29.97 844 24.92 23.1 73.5 13 -6.4 20.5
16:55 1015 29.97 844 24.92 23 73.5 14 -6 21.2
17:00 1015 29.97 844 24.92 22.3 72.1 14 -6.5 20.3
17:05 1015 29.97 844 24.92 22.3 72.1 14 -6.1 20.9
17:10 1015 29.97 844 24.92 22.4 72.4 14 -6 21.3
17:15 1015 29.97 844 24.92 22.5 72.5 15 -5.6 21.9
17:20 1015 29.97 844 24.92 22.6 72.7 14 -6.5 20.4
17:25 1015 29.97 844 24.92 22.6 72.6 13 -7 19.4
17:30 1014 29.94 844 24.92 22.5 72.5 13 -7.2 19
17:35 1014 29.94 844 24.92 22.4 72.2 13 -7.3 18.9
17:40 1015 29.97 844 24.92 22.2 72 13 -6.9 19.5
17:45 1015 29.97 844 24.92 21.9 71.4 13 -7.7 18.2
17:50 1015 29.97 844 24.92 21.5 70.6 13 -7.9 17.7
17:55 1015 29.97 844 24.92 21.3 70.3 13 -8.1 17.4
18:00 1015 29.97 844 24.92 21.2 70.2 13 -8 17.6
18:05 1015 29.97 844 24.92 21.1 69.9 13 -8.7 16.4
18:10 1015 29.97 844 24.92 21 69.8 13 -8.4 16.8
18:15 1014 29.94 844 24.92 20.9 69.7 13 -8.3 17.1
18:20 1014 29.94 844 24.92 21 69.8 13 -8.3 17.1
18:25 1015 29.97 844 24.92 20.9 69.7 14 -7.7 18.2
18:30 1014 29.94 844 24.92 20.8 69.4 14 -7.2 19
18:35 1014 29.94 844 24.92 20.6 69.1 14 -7.6 18.3
18:40 1015 29.97 844 24.92 20.4 68.7 14 -7.5 18.4
18:45 1015 29.97 844 24.92 20.2 68.4 15 -7.3 18.9
18:50 1015 29.97 844 24.92 20 68 15 -6.9 19.5
18:55 1014 29.94 844 24.92 19.9 67.7 17 -6.1 21.1
19:00 1015 29.97 844 24.92 19.7 67.5 16 -6.5 20.3
19:05 1015 29.97 844 24.92 19.6 67.3 17 -6 21.2
19:10 1015 29.97 844 24.92 19.4 67 17 -6.1 21
19:15 1015 29.97 844 24.92 19.4 66.8 17 -6.1 21.1
19:20 1015 29.97 844 24.92 19.2 66.6 18 -5.5 22.1
19:25 1015 29.97 844 24.92 19.1 66.5 18 -5.8 21.5
19:30 1015 29.97 844 24.92 19 66.1 19 -5.4 22.3
19:35 1015 29.97 844 24.92 18.8 65.9 19 -5.4 22.2
19:40 1015 29.97 844 24.92 18.7 65.6 19 -5.5 22.2
19:45 1015 29.97 844 24.92 18.5 65.4 19 -5.3 22.4
19:50 1015 29.97 844 24.92 18.4 65.1 19 -5.2 22.7
19:55 1015 29.97 844 24.92 18.3 64.9 20 -5.3 22.5
20:00 1015 29.97 844 24.92 18.1 64.6 20 -4.9 23.1
20:05 1015 29.97 844 24.92 17.9 64.3 21 -4.4 24
20:10 1015 29.97 844 24.92 17.5 63.4 23 -3.8 25.2
20:15 1015 29.97 844 24.92 16.9 62.4 24 -3.9 25
20:20 1015 29.97 844 24.92 16.8 62.2 23 -4.2 24.4
20:25 1015 29.97 844 24.92 16.9 62.4 23 -4.4 24.1
20:30 1015 29.97 844 24.92 17 62.5 23 -4.5 23.9
20:35 1015 29.97 844 24.92 16.9 62.4 23 -4.2 24.5
20:40 1015 29.97 844 24.92 16.7 62 24 -4.2 24.5
20:45 1015 29.97 844 24.92 16.4 61.6 24 -4.2 24.4
20:50 1015 29.97 845 24.95 16.3 61.4 23 -4.8 23.4
20:55 1015 29.97 845 24.95 16.5 61.7 24 -4.3 24.3
21:00 1015 29.97 845 24.95 16.5 61.7 25 -3.4 25.8
21:05 1015 29.97 845 24.95 15.6 60.1 28 -3 26.7
21:10 1015 29.97 845 24.95 14.8 58.7 36 0.1 32.2
21:15 1015 29.97 845 24.95 14 57.1 45 2.4 36.4
21:20 1015 29.97 845 24.95 13.4 56.1 49 2.9 37.3
21:25 1015 29.97 845 24.95 13.1 55.6 51 3.2 37.8
21:30 1015 29.97 844 24.92 12.9 55.2 52 3.3 37.9
21:35 1015 29.97 844 24.92 12.7 54.8 53 3.3 38
21:40 1015 29.97 844 24.92 12.5 54.4 54 3.5 38.3
21:45 1015 29.97 844 24.92 12.3 54.1 55 3.6 38.5
21:50 1015 29.97 844 24.92 12.1 53.8 56 3.6 38.5
21:55 1015 29.97 844 24.92 11.9 53.5 57 3.8 38.8
22:00 1015 29.97 845 24.95 11.8 53.2 58 3.8 38.9
22:05 1015 29.97 844 24.92 11.6 52.8 59 3.8 38.9
22:10 1015 29.97 844 24.92 11.5 52.6 60 3.9 39
22:15 1015 29.97 844 24.92 11.3 52.4 60 3.8 38.9
22:20 1015 29.97 844 24.92 11.3 52.3 60 3.8 38.9
22:25 1015 29.97 844 24.92 11.2 52.1 60 3.8 38.9
22:30 1015 29.97 844 24.92 11.1 52 60 3.8 38.8
22:35 1015 29.97 844 24.92 11 51.8 61 3.8 38.8
22:40 1015 29.97 844 24.92 10.9 51.6 61 3.8 38.8
22:45 1015 29.97 844 24.92 10.8 51.4 62 3.8 38.9
22:50 1015 29.97 844 24.92 10.7 51.2 62 3.8 38.8
22:55 1015 29.97 844 24.92 10.6 51.1 62 3.7 38.7
23:00 1015 29.97 844 24.92 10.5 51 63 3.8 38.8
23:05 1015 29.97 844 24.92 10.4 50.8 63 3.8 38.9
23:10 1015 29.97 844 24.92 10.4 50.6 64 3.9 38.9
23:15 1015 29.97 844 24.92 10.2 50.3 64 3.8 38.8
23:20 1015 29.97 844 24.92 10 50.1 65 3.8 38.8
23:25 1015 29.97 844 24.92 9.9 49.9 65 3.7 38.7
23:30 1015 29.97 844 24.92 9.9 49.9 64 3.5 38.4
23:35 1015 29.97 844 24.92 9.9 49.9 65 3.6 38.5
23:40 1015 29.97 844 24.92 9.9 49.7 65 3.6 38.4
23:45 1015 29.97 844 24.92 9.8 49.7 65 3.5 38.4
23:50 1015 29.97 844 24.92 9.8 49.7 65 3.5 38.3
23:55 1015 29.97 844 24.92 9.7 49.5 65 3.5 38.3
24:00 1015 29.97 844 24.92 9.6 49.3 65 3.5 38.2